sensor_id;sensor_type;location;lat;lon;timestamp;pressure;altitude;pressure_sealevel;temperature
14666;BMP280;7420;53.574;10.040;2022-09-09T00:02:21;100879.00;;;14.42
14666;BMP280;7420;53.574;10.040;2022-09-09T00:05:13;100877.03;;;14.49
14666;BMP280;7420;53.574;10.040;2022-09-09T00:15:19;100872.28;;;14.51
14666;BMP280;7420;53.574;10.040;2022-09-09T00:18:00;100876.69;;;14.57
14666;BMP280;7420;53.574;10.040;2022-09-09T00:20:52;100873.56;;;14.60
14666;BMP280;7420;53.574;10.040;2022-09-09T00:28:27;100881.22;;;14.45
14666;BMP280;7420;53.574;10.040;2022-09-09T00:30:56;100882.84;;;14.46
14666;BMP280;7420;53.574;10.040;2022-09-09T00:33:23;100893.78;;;14.45
14666;BMP280;7420;53.574;10.040;2022-09-09T00:35:51;100881.44;;;14.44
14666;BMP280;7420;53.574;10.040;2022-09-09T00:43:31;100875.53;;;14.53
14666;BMP280;7420;53.574;10.040;2022-09-09T00:48:41;100882.38;;;14.49
14666;BMP280;7420;53.574;10.040;2022-09-09T00:51:54;100874.69;;;14.41
14666;BMP280;7420;53.574;10.040;2022-09-09T00:54:35;100873.63;;;14.42
14666;BMP280;7420;53.574;10.040;2022-09-09T00:59:47;100874.69;;;14.41
14666;BMP280;7420;53.574;10.040;2022-09-09T01:02:16;100882.13;;;14.39
14666;BMP280;7420;53.574;10.040;2022-09-09T01:04:43;100875.72;;;14.40
14666;BMP280;7420;53.574;10.040;2022-09-09T01:07:18;100875.84;;;14.45
14666;BMP280;7420;53.574;10.040;2022-09-09T01:09:51;100879.81;;;14.43
14666;BMP280;7420;53.574;10.040;2022-09-09T01:12:25;100883.03;;;14.33
14666;BMP280;7420;53.574;10.040;2022-09-09T01:14:52;100875.69;;;14.29
14666;BMP280;7420;53.574;10.040;2022-09-09T01:17:26;100873.28;;;14.27
14666;BMP280;7420;53.574;10.040;2022-09-09T01:20:08;100874.06;;;14.28
14666;BMP280;7420;53.574;10.040;2022-09-09T01:25:20;100872.09;;;14.23
14666;BMP280;7420;53.574;10.040;2022-09-09T01:27:49;100878.63;;;14.27
14666;BMP280;7420;53.574;10.040;2022-09-09T01:30:16;100881.06;;;14.29
14666;BMP280;7420;53.574;10.040;2022-09-09T01:32:49;100884.56;;;14.29
14666;BMP280;7420;53.574;10.040;2022-09-09T01:35:17;100889.03;;;14.17
14666;BMP280;7420;53.574;10.040;2022-09-09T01:37:44;100894.84;;;14.14
14666;BMP280;7420;53.574;10.040;2022-09-09T01:40:09;100879.38;;;14.16
14666;BMP280;7420;53.574;10.040;2022-09-09T01:42:34;100883.31;;;14.14
14666;BMP280;7420;53.574;10.040;2022-09-09T01:45:00;100878.94;;;14.19
14666;BMP280;7420;53.574;10.040;2022-09-09T01:47:25;100861.88;;;14.32
14666;BMP280;7420;53.574;10.040;2022-09-09T01:49:50;100870.59;;;14.27
14666;BMP280;7420;53.574;10.040;2022-09-09T01:52:15;100879.16;;;14.18
14666;BMP280;7420;53.574;10.040;2022-09-09T01:54:41;100866.03;;;14.16
14666;BMP280;7420;53.574;10.040;2022-09-09T01:57:09;100863.97;;;14.12
14666;BMP280;7420;53.574;10.040;2022-09-09T01:59:45;100873.00;;;14.17
14666;BMP280;7420;53.574;10.040;2022-09-09T02:02:16;100858.59;;;14.18
14666;BMP280;7420;53.574;10.040;2022-09-09T02:04:45;100858.13;;;14.21
14666;BMP280;7420;53.574;10.040;2022-09-09T02:07:21;100865.28;;;14.09
14666;BMP280;7420;53.574;10.040;2022-09-09T02:09:49;100858.75;;;14.05
14666;BMP280;7420;53.574;10.040;2022-09-09T02:12:16;100869.75;;;13.97
14666;BMP280;7420;53.574;10.040;2022-09-09T02:14:47;100871.22;;;13.93
14666;BMP280;7420;53.574;10.040;2022-09-09T02:17:15;100872.06;;;13.94
14666;BMP280;7420;53.574;10.040;2022-09-09T02:19:45;100869.94;;;13.84
14666;BMP280;7420;53.574;10.040;2022-09-09T02:22:14;100864.59;;;13.84
14666;BMP280;7420;53.574;10.040;2022-09-09T02:24:41;100873.41;;;13.85
14666;BMP280;7420;53.574;10.040;2022-09-09T02:27:07;100863.78;;;13.84
14666;BMP280;7420;53.574;10.040;2022-09-09T02:29:38;100869.56;;;13.81
14666;BMP280;7420;53.574;10.040;2022-09-09T02:32:05;100876.13;;;13.96
14666;BMP280;7420;53.574;10.040;2022-09-09T02:34:31;100872.53;;;13.91
14666;BMP280;7420;53.574;10.040;2022-09-09T02:36:58;100869.16;;;13.95
14666;BMP280;7420;53.574;10.040;2022-09-09T02:39:25;100869.03;;;13.90
14666;BMP280;7420;53.574;10.040;2022-09-09T02:41:50;100869.94;;;13.84
14666;BMP280;7420;53.574;10.040;2022-09-09T02:44:16;100862.28;;;13.88
14666;BMP280;7420;53.574;10.040;2022-09-09T02:52:01;100868.06;;;13.85
14666;BMP280;7420;53.574;10.040;2022-09-09T02:54:30;100869.03;;;13.90
14666;BMP280;7420;53.574;10.040;2022-09-09T02:56:59;100871.47;;;13.92
14666;BMP280;7420;53.574;10.040;2022-09-09T02:59:27;100868.00;;;13.91
14666;BMP280;7420;53.574;10.040;2022-09-09T03:01:52;100878.16;;;13.83
14666;BMP280;7420;53.574;10.040;2022-09-09T03:04:18;100871.38;;;13.69
14666;BMP280;7420;53.574;10.040;2022-09-09T03:06:43;100865.22;;;13.69
14666;BMP280;7420;53.574;10.040;2022-09-09T03:09:09;100865.22;;;13.69
14666;BMP280;7420;53.574;10.040;2022-09-09T03:11:35;100865.00;;;13.70
14666;BMP280;7420;53.574;10.040;2022-09-09T03:14:01;100869.97;;;13.67
14666;BMP280;7420;53.574;10.040;2022-09-09T03:16:26;100873.66;;;13.66
14666;BMP280;7420;53.574;10.040;2022-09-09T03:18:51;100870.19;;;13.65
14666;BMP280;7420;53.574;10.040;2022-09-09T03:21:17;100865.22;;;13.69
14666;BMP280;7420;53.574;10.040;2022-09-09T03:23:43;100865.22;;;13.69
14666;BMP280;7420;53.574;10.040;2022-09-09T03:26:09;100872.44;;;13.68
14666;BMP280;7420;53.574;10.040;2022-09-09T03:28:35;100876.00;;;13.62
14666;BMP280;7420;53.574;10.040;2022-09-09T03:31:01;100861.94;;;13.67
14666;BMP280;7420;53.574;10.040;2022-09-09T03:33:26;100860.91;;;13.68
14666;BMP280;7420;53.574;10.040;2022-09-09T03:35:52;100859.81;;;13.57
14666;BMP280;7420;53.574;10.040;2022-09-09T03:38:18;100860.56;;;13.64
14666;BMP280;7420;53.574;10.040;2022-09-09T03:40:50;100865.97;;;13.58
14666;BMP280;7420;53.574;10.040;2022-09-09T03:43:16;100857.84;;;13.53
14666;BMP280;7420;53.574;10.040;2022-09-09T03:45:44;100860.63;;;13.58
14666;BMP280;7420;53.574;10.040;2022-09-09T03:48:11;100864.50;;;13.44
14666;BMP280;7420;53.574;10.040;2022-09-09T03:50:36;100877.69;;;13.39
14666;BMP280;7420;53.574;10.040;2022-09-09T03:53:02;100868.50;;;13.35
14666;BMP280;7420;53.574;10.040;2022-09-09T03:55:27;100879.41;;;13.33
14666;BMP280;7420;53.574;10.040;2022-09-09T03:57:52;100882.38;;;13.43
14666;BMP280;7420;53.574;10.040;2022-09-09T04:00:17;100882.38;;;13.43
14666;BMP280;7420;53.574;10.040;2022-09-09T04:02:42;100880.22;;;13.34
14666;BMP280;7420;53.574;10.040;2022-09-09T04:05:08;100884.06;;;13.38
14666;BMP280;7420;53.574;10.040;2022-09-09T04:07:34;100882.66;;;13.35
14666;BMP280;7420;53.574;10.040;2022-09-09T04:09:59;100889.63;;;13.36
14666;BMP280;7420;53.574;10.040;2022-09-09T04:12:24;100889.72;;;13.30
14666;BMP280;7420;53.574;10.040;2022-09-09T04:14:50;100890.75;;;13.29
14666;BMP280;7420;53.574;10.040;2022-09-09T04:17:15;100884.81;;;13.27
14666;BMP280;7420;53.574;10.040;2022-09-09T04:19:40;100888.06;;;13.29
14666;BMP280;7420;53.574;10.040;2022-09-09T04:22:07;100889.72;;;13.30
14666;BMP280;7420;53.574;10.040;2022-09-09T04:24:32;100887.91;;;13.24
14666;BMP280;7420;53.574;10.040;2022-09-09T04:26:57;100894.44;;;13.28
14666;BMP280;7420;53.574;10.040;2022-09-09T04:29:22;100899.34;;;13.31
14666;BMP280;7420;53.574;10.040;2022-09-09T04:31:48;100901.88;;;13.26
14666;BMP280;7420;53.574;10.040;2022-09-09T04:34:13;100886.88;;;13.25
14666;BMP280;7420;53.574;10.040;2022-09-09T04:36:38;100902.31;;;13.23
14666;BMP280;7420;53.574;10.040;2022-09-09T04:39:05;100901.69;;;13.21
14666;BMP280;7420;53.574;10.040;2022-09-09T04:41:30;100903.88;;;13.30
14666;BMP280;7420;53.574;10.040;2022-09-09T04:43:56;100899.06;;;13.39
14666;BMP280;7420;53.574;10.040;2022-09-09T04:46:21;100900.44;;;13.41
14666;BMP280;7420;53.574;10.040;2022-09-09T04:48:48;100904.75;;;13.42
14666;BMP280;7420;53.574;10.040;2022-09-09T04:51:14;100908.25;;;13.43
14666;BMP280;7420;53.574;10.040;2022-09-09T04:53:40;100906.34;;;13.50
14666;BMP280;7420;53.574;10.040;2022-09-09T04:56:06;100909.13;;;13.55
14666;BMP280;7420;53.574;10.040;2022-09-09T04:58:32;100903.00;;;13.54
14666;BMP280;7420;53.574;10.040;2022-09-09T05:01:07;100897.56;;;13.61
14666;BMP280;7420;53.574;10.040;2022-09-09T05:03:33;100920.56;;;13.62
14666;BMP280;7420;53.574;10.040;2022-09-09T05:06:02;100918.13;;;13.60
14666;BMP280;7420;53.574;10.040;2022-09-09T05:08:29;100914.84;;;13.58
14666;BMP280;7420;53.574;10.040;2022-09-09T05:10:54;100913.59;;;13.61
14666;BMP280;7420;53.574;10.040;2022-09-09T05:13:20;100911.34;;;13.58
14666;BMP280;7420;53.574;10.040;2022-09-09T05:15:51;100912.19;;;13.58
14666;BMP280;7420;53.574;10.040;2022-09-09T05:18:16;100913.59;;;13.61
14666;BMP280;7420;53.574;10.040;2022-09-09T05:20:41;100916.41;;;13.66
14666;BMP280;7420;53.574;10.040;2022-09-09T05:23:07;100919.66;;;13.68
14666;BMP280;7420;53.574;10.040;2022-09-09T05:25:33;100910.19;;;13.72
14666;BMP280;7420;53.574;10.040;2022-09-09T05:27:58;100917.88;;;13.79
14666;BMP280;7420;53.574;10.040;2022-09-09T05:30:24;100912.84;;;13.72
14666;BMP280;7420;53.574;10.040;2022-09-09T05:32:51;100911.44;;;13.69
14666;BMP280;7420;53.574;10.040;2022-09-09T05:35:16;100912.69;;;13.84
14666;BMP280;7420;53.574;10.040;2022-09-09T05:37:43;100927.44;;;13.87
14666;BMP280;7420;53.574;10.040;2022-09-09T05:40:11;100920.97;;;13.94
14666;BMP280;7420;53.574;10.040;2022-09-09T05:42:36;100924.69;;;13.93
14666;BMP280;7420;53.574;10.040;2022-09-09T05:45:02;100926.84;;;13.85
14666;BMP280;7420;53.574;10.040;2022-09-09T05:47:27;100936.56;;;13.97
14666;BMP280;7420;53.574;10.040;2022-09-09T05:49:53;100936.56;;;13.97
14666;BMP280;7420;53.574;10.040;2022-09-09T05:52:18;100939.66;;;14.12
14666;BMP280;7420;53.574;10.040;2022-09-09T05:54:43;100935.53;;;14.16
14666;BMP280;7420;53.574;10.040;2022-09-09T05:57:08;100942.94;;;14.14
14666;BMP280;7420;53.574;10.040;2022-09-09T05:59:34;100938.78;;;14.18
14666;BMP280;7420;53.574;10.040;2022-09-09T06:01:59;100940.88;;;14.16
14666;BMP280;7420;53.574;10.040;2022-09-09T06:04:24;100948.38;;;14.08
14666;BMP280;7420;53.574;10.040;2022-09-09T06:06:49;100949.16;;;14.08
14666;BMP280;7420;53.574;10.040;2022-09-09T06:09:15;100949.63;;;14.05
14666;BMP280;7420;53.574;10.040;2022-09-09T06:11:40;100956.72;;;14.11
14666;BMP280;7420;53.574;10.040;2022-09-09T06:14:06;100952.00;;;14.13
14666;BMP280;7420;53.574;10.040;2022-09-09T06:16:31;100951.63;;;14.10
14666;BMP280;7420;53.574;10.040;2022-09-09T06:19:00;100966.03;;;14.09
14666;BMP280;7420;53.574;10.040;2022-09-09T06:21:26;100973.06;;;14.03
14666;BMP280;7420;53.574;10.040;2022-09-09T06:23:52;100966.69;;;14.04
14666;BMP280;7420;53.574;10.040;2022-09-09T06:26:25;100966.47;;;14.06
14666;BMP280;7420;53.574;10.040;2022-09-09T06:28:51;100973.47;;;14.07
14666;BMP280;7420;53.574;10.040;2022-09-09T06:31:18;100965.44;;;14.07
14666;BMP280;7420;53.574;10.040;2022-09-09T06:33:47;100965.78;;;14.10
14666;BMP280;7420;53.574;10.040;2022-09-09T06:36:22;100967.75;;;14.21
14666;BMP280;7420;53.574;10.040;2022-09-09T06:38:48;100969.97;;;14.24
14666;BMP280;7420;53.574;10.040;2022-09-09T06:41:14;100971.16;;;14.28
14666;BMP280;7420;53.574;10.040;2022-09-09T06:43:40;100969.41;;;14.34
14666;BMP280;7420;53.574;10.040;2022-09-09T06:46:10;100970.50;;;14.44
14666;BMP280;7420;53.574;10.040;2022-09-09T06:48:35;100970.28;;;14.46
14666;BMP280;7420;53.574;10.040;2022-09-09T06:51:06;100970.22;;;14.64
14666;BMP280;7420;53.574;10.040;2022-09-09T06:53:32;100974.63;;;14.58
14666;BMP280;7420;53.574;10.040;2022-09-09T06:55:59;100968.72;;;14.68
14666;BMP280;7420;53.574;10.040;2022-09-09T06:58:25;100963.72;;;14.71
14666;BMP280;7420;53.574;10.040;2022-09-09T07:00:50;100968.25;;;14.71
14666;BMP280;7420;53.574;10.040;2022-09-09T07:03:15;100965.72;;;14.87
14666;BMP280;7420;53.574;10.040;2022-09-09T07:05:40;100965.28;;;14.90
14666;BMP280;7420;53.574;10.040;2022-09-09T07:08:06;100964.81;;;15.16
14666;BMP280;7420;53.574;10.040;2022-09-09T07:10:31;100966.13;;;15.25
14666;BMP280;7420;53.574;10.040;2022-09-09T07:12:56;100971.28;;;15.26
14666;BMP280;7420;53.574;10.040;2022-09-09T07:15:22;100960.31;;;15.16
14666;BMP280;7420;53.574;10.040;2022-09-09T07:17:48;100962.16;;;15.16
14666;BMP280;7420;53.574;10.040;2022-09-09T07:20:13;100975.66;;;15.09
14666;BMP280;7420;53.574;10.040;2022-09-09T07:22:39;100977.03;;;15.12
14666;BMP280;7420;53.574;10.040;2022-09-09T07:25:05;100976.94;;;15.07
14666;BMP280;7420;53.574;10.040;2022-09-09T07:27:30;100973.09;;;15.14
14666;BMP280;7420;53.574;10.040;2022-09-09T07:29:55;100977.06;;;15.23
14666;BMP280;7420;53.574;10.040;2022-09-09T07:32:22;100977.22;;;15.40
14666;BMP280;7420;53.574;10.040;2022-09-09T07:34:47;100975.72;;;15.44
14666;BMP280;7420;53.574;10.040;2022-09-09T07:37:13;100971.84;;;15.63
14666;BMP280;7420;53.574;10.040;2022-09-09T07:39:38;100982.53;;;15.86
14666;BMP280;7420;53.574;10.040;2022-09-09T07:42:03;100977.19;;;15.86
14666;BMP280;7420;53.574;10.040;2022-09-09T07:44:30;100978.44;;;15.83
14666;BMP280;7420;53.574;10.040;2022-09-09T07:46:57;100987.97;;;15.91
14666;BMP280;7420;53.574;10.040;2022-09-09T07:49:22;100987.72;;;16.04
14666;BMP280;7420;53.574;10.040;2022-09-09T07:51:48;100992.50;;;16.02
14666;BMP280;7420;53.574;10.040;2022-09-09T07:54:14;100998.69;;;16.02
14666;BMP280;7420;53.574;10.040;2022-09-09T07:56:40;100989.19;;;16.22
14666;BMP280;7420;53.574;10.040;2022-09-09T07:59:06;101000.72;;;16.23
14666;BMP280;7420;53.574;10.040;2022-09-09T08:01:33;101003.09;;;16.08
14666;BMP280;7420;53.574;10.040;2022-09-09T08:04:02;100996.09;;;16.18
14666;BMP280;7420;53.574;10.040;2022-09-09T08:06:29;101004.38;;;16.06
14666;BMP280;7420;53.574;10.040;2022-09-09T08:08:54;101005.06;;;16.13
14666;BMP280;7420;53.574;10.040;2022-09-09T08:11:20;101008.22;;;16.10
14666;BMP280;7420;53.574;10.040;2022-09-09T08:13:46;101011.81;;;16.15
14666;BMP280;7420;53.574;10.040;2022-09-09T08:16:14;101003.97;;;16.36
14666;BMP280;7420;53.574;10.040;2022-09-09T08:18:39;101012.88;;;16.53
14666;BMP280;7420;53.574;10.040;2022-09-09T08:21:14;101009.34;;;16.64
14666;BMP280;7420;53.574;10.040;2022-09-09T08:23:42;101011.75;;;16.49
14666;BMP280;7420;53.574;10.040;2022-09-09T08:26:12;101018.16;;;16.48
14666;BMP280;7420;53.574;10.040;2022-09-09T08:28:38;101009.41;;;16.69
14666;BMP280;7420;53.574;10.040;2022-09-09T08:31:09;101011.03;;;16.98
14666;BMP280;7420;53.574;10.040;2022-09-09T08:33:35;101021.50;;;17.00
14666;BMP280;7420;53.574;10.040;2022-09-09T08:36:03;101019.88;;;16.99
14666;BMP280;7420;53.574;10.040;2022-09-09T08:38:28;101017.34;;;16.92
14666;BMP280;7420;53.574;10.040;2022-09-09T08:40:53;101021.66;;;16.93
14666;BMP280;7420;53.574;10.040;2022-09-09T08:43:24;101017.25;;;16.87
14666;BMP280;7420;53.574;10.040;2022-09-09T08:45:54;101017.44;;;16.81
14666;BMP280;7420;53.574;10.040;2022-09-09T08:48:37;101022.94;;;16.74
14666;BMP280;7420;53.574;10.040;2022-09-09T08:51:06;101023.38;;;16.83
14666;BMP280;7420;53.574;10.040;2022-09-09T08:53:41;101023.69;;;16.86
14666;BMP280;7420;53.574;10.040;2022-09-09T08:56:14;101029.91;;;17.03
14666;BMP280;7420;53.574;10.040;2022-09-09T08:58:51;101020.28;;;17.07
14666;BMP280;7420;53.574;10.040;2022-09-09T09:01:35;101022.47;;;17.38
14666;BMP280;7420;53.574;10.040;2022-09-09T09:14:18;101025.28;;;17.86
14666;BMP280;7420;53.574;10.040;2022-09-09T09:17:20;101024.75;;;18.05
14666;BMP280;7420;53.574;10.040;2022-09-09T09:19:41;101021.19;;;18.00
14666;BMP280;7420;53.574;10.040;2022-09-09T09:24:43;101020.06;;;18.17
14666;BMP280;7420;53.574;10.040;2022-09-09T09:27:16;101026.28;;;18.18
14666;BMP280;7420;53.574;10.040;2022-09-09T09:29:43;101020.66;;;18.41
14666;BMP280;7420;53.574;10.040;2022-09-09T09:32:10;101027.56;;;17.94
14666;BMP280;7420;53.574;10.040;2022-09-09T09:34:37;101024.13;;;17.98
14666;BMP280;7420;53.574;10.040;2022-09-09T09:37:11;101021.31;;;18.10
14666;BMP280;7420;53.574;10.040;2022-09-09T09:39:37;101027.84;;;18.14
14666;BMP280;7420;53.574;10.040;2022-09-09T09:42:09;101023.97;;;18.26
14666;BMP280;7420;53.574;10.040;2022-09-09T09:44:35;101030.63;;;18.24
14666;BMP280;7420;53.574;10.040;2022-09-09T09:47:10;101022.09;;;18.27
14666;BMP280;7420;53.574;10.040;2022-09-09T09:49:35;101026.53;;;18.38
14666;BMP280;7420;53.574;10.040;2022-09-09T09:52:01;101026.09;;;18.46
14666;BMP280;7420;53.574;10.040;2022-09-09T09:54:31;101030.13;;;18.48
14666;BMP280;7420;53.574;10.040;2022-09-09T09:57:14;101031.47;;;18.46
14666;BMP280;7420;53.574;10.040;2022-09-09T09:59:40;101024.16;;;18.67
14666;BMP280;7420;53.574;10.040;2022-09-09T10:02:22;101020.50;;;18.78
14666;BMP280;7420;53.574;10.040;2022-09-09T10:05:00;101037.38;;;18.95
14666;BMP280;7420;53.574;10.040;2022-09-09T10:07:26;101031.00;;;19.06
14666;BMP280;7420;53.574;10.040;2022-09-09T10:09:56;101019.50;;;18.84
14666;BMP280;7420;53.574;10.040;2022-09-09T10:19:42;101019.97;;;19.34
14666;BMP280;7420;53.574;10.040;2022-09-09T10:22:27;101024.03;;;19.10
14666;BMP280;7420;53.574;10.040;2022-09-09T10:42:41;101004.09;;;19.79
14666;BMP280;7420;53.574;10.040;2022-09-09T10:55:43;101003.44;;;20.08
14666;BMP280;7420;53.574;10.040;2022-09-09T10:58:10;100999.31;;;19.96
14666;BMP280;7420;53.574;10.040;2022-09-09T11:03:03;100998.16;;;19.87
14666;BMP280;7420;53.574;10.040;2022-09-09T11:05:30;100991.63;;;19.68
14666;BMP280;7420;53.574;10.040;2022-09-09T11:13:09;101000.38;;;19.95
14666;BMP280;7420;53.574;10.040;2022-09-09T11:15:39;100993.06;;;20.67
14666;BMP280;7420;53.574;10.040;2022-09-09T11:18:06;100990.19;;;21.03
14666;BMP280;7420;53.574;10.040;2022-09-09T11:20:34;100990.19;;;21.03
14666;BMP280;7420;53.574;10.040;2022-09-09T11:23:04;100982.09;;;21.13
14666;BMP280;7420;53.574;10.040;2022-09-09T11:25:43;100981.78;;;21.09
14666;BMP280;7420;53.574;10.040;2022-09-09T11:28:28;100985.56;;;21.08
14666;BMP280;7420;53.574;10.040;2022-09-09T11:36:34;100990.13;;;20.68
14666;BMP280;7420;53.574;10.040;2022-09-09T11:38:59;101006.59;;;20.72
14666;BMP280;7420;53.574;10.040;2022-09-09T11:41:32;101000.63;;;20.50
14666;BMP280;7420;53.574;10.040;2022-09-09T11:43:58;101003.06;;;20.56
14666;BMP280;7420;53.574;10.040;2022-09-09T11:46:31;101006.78;;;20.35
14666;BMP280;7420;53.574;10.040;2022-09-09T11:48:59;101006.00;;;20.45
14666;BMP280;7420;53.574;10.040;2022-09-09T11:51:27;101001.63;;;20.29
14666;BMP280;7420;53.574;10.040;2022-09-09T11:53:54;101000.63;;;20.65
14666;BMP280;7420;53.574;10.040;2022-09-09T11:58:55;101000.09;;;20.63
14666;BMP280;7420;53.574;10.040;2022-09-09T12:01:34;101009.34;;;20.87
14666;BMP280;7420;53.574;10.040;2022-09-09T12:04:17;101000.44;;;20.86
14666;BMP280;7420;53.574;10.040;2022-09-09T12:09:56;100994.50;;;21.04
14666;BMP280;7420;53.574;10.040;2022-09-09T12:12:04;100995.03;;;20.96
14666;BMP280;7420;53.574;10.040;2022-09-09T12:14:44;100991.44;;;20.61
14666;BMP280;7420;53.574;10.040;2022-09-09T12:17:19;100992.19;;;20.26
14666;BMP280;7420;53.574;10.040;2022-09-09T12:19:45;100991.13;;;20.32
14666;BMP280;7420;53.574;10.040;2022-09-09T12:22:16;101001.16;;;20.47
14666;BMP280;7420;53.574;10.040;2022-09-09T12:24:48;100988.75;;;20.51
14666;BMP280;7420;53.574;10.040;2022-09-09T12:29:48;100995.47;;;20.53
14666;BMP280;7420;53.574;10.040;2022-09-09T12:32:15;100990.66;;;20.70
14666;BMP280;7420;53.574;10.040;2022-09-09T12:34:49;101007.47;;;20.92
14666;BMP280;7420;53.574;10.040;2022-09-09T12:39:52;100999.31;;;20.67
14666;BMP280;7420;53.574;10.040;2022-09-09T12:42:19;101001.09;;;20.32
14666;BMP280;7420;53.574;10.040;2022-09-09T12:44:57;100992.06;;;21.22
14666;BMP280;7420;53.574;10.040;2022-09-09T12:47:45;100999.00;;;21.83
14666;BMP280;7420;53.574;10.040;2022-09-09T12:50:15;100977.41;;;21.73
14666;BMP280;7420;53.574;10.040;2022-09-09T12:52:41;100983.44;;;20.91
14666;BMP280;7420;53.574;10.040;2022-09-09T12:55:07;100982.28;;;20.67
14666;BMP280;7420;53.574;10.040;2022-09-09T12:57:34;100985.50;;;20.49
14666;BMP280;7420;53.574;10.040;2022-09-09T13:00:10;100984.53;;;20.08
14666;BMP280;7420;53.574;10.040;2022-09-09T13:02:44;100978.72;;;19.75
14666;BMP280;7420;53.574;10.040;2022-09-09T13:05:15;100988.09;;;19.67
14666;BMP280;7420;53.574;10.040;2022-09-09T13:07:41;100991.59;;;19.63
14666;BMP280;7420;53.574;10.040;2022-09-09T13:10:10;100994.97;;;19.44
14666;BMP280;7420;53.574;10.040;2022-09-09T13:12:35;100998.75;;;19.48
14666;BMP280;7420;53.574;10.040;2022-09-09T13:15:00;100998.38;;;19.29
14666;BMP280;7420;53.574;10.040;2022-09-09T13:17:27;100997.44;;;19.14
14666;BMP280;7420;53.574;10.040;2022-09-09T13:19:54;100998.94;;;19.05
14666;BMP280;7420;53.574;10.040;2022-09-09T13:22:29;100996.75;;;19.02
14666;BMP280;7420;53.574;10.040;2022-09-09T13:24:58;101006.13;;;18.94
14666;BMP280;7420;53.574;10.040;2022-09-09T13:29:52;100998.34;;;18.71
14666;BMP280;7420;53.574;10.040;2022-09-09T13:32:21;101008.94;;;18.78
14666;BMP280;7420;53.574;10.040;2022-09-09T13:34:57;101031.16;;;18.68
14666;BMP280;7420;53.574;10.040;2022-09-09T13:39:54;101043.94;;;18.30
14666;BMP280;7420;53.574;10.040;2022-09-09T13:42:22;101055.03;;;18.17
14666;BMP280;7420;53.574;10.040;2022-09-09T13:44:50;101063.56;;;17.93
14666;BMP280;7420;53.574;10.040;2022-09-09T13:47:17;101058.72;;;17.73
14666;BMP280;7420;53.574;10.040;2022-09-09T13:49:44;101060.38;;;17.58
14666;BMP280;7420;53.574;10.040;2022-09-09T13:52:11;101060.56;;;17.51
14666;BMP280;7420;53.574;10.040;2022-09-09T13:54:38;101060.06;;;17.38
14666;BMP280;7420;53.574;10.040;2022-09-09T13:57:04;101058.19;;;17.38
14666;BMP280;7420;53.574;10.040;2022-09-09T13:59:29;101053.06;;;17.37
14666;BMP280;7420;53.574;10.040;2022-09-09T14:01:55;101056.31;;;17.39
14666;BMP280;7420;53.574;10.040;2022-09-09T14:04:20;101049.06;;;17.56
14666;BMP280;7420;53.574;10.040;2022-09-09T14:06:48;101036.69;;;17.38
14666;BMP280;7420;53.574;10.040;2022-09-09T14:09:14;101035.44;;;17.46
14666;BMP280;7420;53.574;10.040;2022-09-09T14:11:40;101032.72;;;17.41
14666;BMP280;7420;53.574;10.040;2022-09-09T14:14:05;101025.22;;;17.43
14666;BMP280;7420;53.574;10.040;2022-09-09T14:16:31;101020.56;;;17.38
14666;BMP280;7420;53.574;10.040;2022-09-09T14:18:56;101029.75;;;17.59
14666;BMP280;7420;53.574;10.040;2022-09-09T14:21:22;101022.78;;;17.41
14666;BMP280;7420;53.574;10.040;2022-09-09T14:23:47;101030.25;;;17.39
14666;BMP280;7420;53.574;10.040;2022-09-09T14:26:13;101027.38;;;17.46
14666;BMP280;7420;53.574;10.040;2022-09-09T14:28:38;101026.28;;;17.42
14666;BMP280;7420;53.574;10.040;2022-09-09T14:31:05;101024.47;;;17.47
14666;BMP280;7420;53.574;10.040;2022-09-09T14:33:30;101025.38;;;17.36
14666;BMP280;7420;53.574;10.040;2022-09-09T14:35:59;101030.06;;;17.29
14666;BMP280;7420;53.574;10.040;2022-09-09T14:38:24;101036.56;;;17.17
14666;BMP280;7420;53.574;10.040;2022-09-09T14:40:50;101025.59;;;17.19
14666;BMP280;7420;53.574;10.040;2022-09-09T14:43:15;101014.50;;;17.15
14666;BMP280;7420;53.574;10.040;2022-09-09T14:45:40;101010.78;;;17.16
14666;BMP280;7420;53.574;10.040;2022-09-09T14:48:05;101017.38;;;17.25
14666;BMP280;7420;53.574;10.040;2022-09-09T14:50:31;101020.47;;;17.17
14666;BMP280;7420;53.574;10.040;2022-09-09T14:52:56;101027.44;;;17.02
14666;BMP280;7420;53.574;10.040;2022-09-09T14:55:21;101029.09;;;17.03
14666;BMP280;7420;53.574;10.040;2022-09-09T14:57:46;101028.41;;;16.96
14666;BMP280;7420;53.574;10.040;2022-09-09T15:00:12;101026.69;;;16.90
14666;BMP280;7420;53.574;10.040;2022-09-09T15:02:38;101028.84;;;17.04
14666;BMP280;7420;53.574;10.040;2022-09-09T15:05:04;101029.56;;;17.00
14666;BMP280;7420;53.574;10.040;2022-09-09T15:07:29;101028.03;;;17.04
14666;BMP280;7420;53.574;10.040;2022-09-09T15:09:56;101024.09;;;16.95
14666;BMP280;7420;53.574;10.040;2022-09-09T15:12:22;101035.66;;;16.95
14666;BMP280;7420;53.574;10.040;2022-09-09T15:14:47;101029.09;;;17.03
14666;BMP280;7420;53.574;10.040;2022-09-09T15:17:13;101032.03;;;17.01
14666;BMP280;7420;53.574;10.040;2022-09-09T15:19:38;101028.59;;;16.89
14666;BMP280;7420;53.574;10.040;2022-09-09T15:22:04;101036.06;;;16.87
14666;BMP280;7420;53.574;10.040;2022-09-09T15:24:30;101033.66;;;17.02
14666;BMP280;7420;53.574;10.040;2022-09-09T15:26:55;101040.47;;;17.10
14666;BMP280;7420;53.574;10.040;2022-09-09T15:29:21;101035.03;;;17.05
14666;BMP280;7420;53.574;10.040;2022-09-09T15:31:46;101023.22;;;17.22
14666;BMP280;7420;53.574;10.040;2022-09-09T15:34:12;101021.13;;;17.40
14666;BMP280;7420;53.574;10.040;2022-09-09T15:36:39;101020.97;;;17.47
14666;BMP280;7420;53.574;10.040;2022-09-09T15:39:06;101016.22;;;17.54
14666;BMP280;7420;53.574;10.040;2022-09-09T15:41:32;101018.13;;;17.53
14666;BMP280;7420;53.574;10.040;2022-09-09T15:43:57;101016.97;;;17.66
14666;BMP280;7420;53.574;10.040;2022-09-09T15:46:30;101015.72;;;17.73
14666;BMP280;7420;53.574;10.040;2022-09-09T15:48:58;101024.75;;;17.84
14666;BMP280;7420;53.574;10.040;2022-09-09T15:51:24;101028.09;;;17.74